createdAt,value
2022-12-23T00:01:29.511Z,100121.88
2022-12-23T00:03:58.366Z,100121.69
2022-12-23T00:06:27.551Z,100126.91
2022-12-23T00:08:58.227Z,100132.41
2022-12-23T00:11:26.984Z,100135.75
2022-12-23T00:14:18.165Z,100141.28
2022-12-23T00:16:48.463Z,100144.41
2022-12-23T00:19:16.019Z,100146.78
2022-12-23T00:21:44.817Z,100148.47
2022-12-23T00:24:12.679Z,100151.31
2022-12-23T00:26:40.247Z,100155.28
2022-12-23T00:29:07.698Z,100158.25
2022-12-23T00:31:35.253Z,100154.72
2022-12-23T00:34:02.796Z,100158.41
2022-12-23T00:36:32.179Z,100163.44
2022-12-23T00:39:20.948Z,100161.75
2022-12-23T00:42:05.753Z,100161.03
2022-12-23T00:44:33.367Z,100160.22
2022-12-23T00:47:00.775Z,100152.63
2022-12-23T00:49:42.529Z,100162.13
2022-12-23T00:52:11.345Z,100160.59
2022-12-23T00:54:40.253Z,100171.75
2022-12-23T00:57:07.794Z,100173.44
2022-12-23T00:59:35.352Z,100173.31
2022-12-23T01:02:20.777Z,100183.66
2022-12-23T01:05:06.034Z,100187.00
2022-12-23T01:07:33.632Z,100179.06
2022-12-23T01:10:02.486Z,100180.34
2022-12-23T01:12:30.041Z,100179.19
2022-12-23T01:14:57.546Z,100180.34
2022-12-23T01:17:25.043Z,100184.22
2022-12-23T01:19:52.514Z,100183.13
2022-12-23T01:22:19.901Z,100181.91
2022-12-23T01:24:47.391Z,100191.94
2022-12-23T01:27:16.276Z,100201.75
2022-12-23T01:29:43.802Z,100204.59
2022-12-23T01:32:11.314Z,100199.50
2022-12-23T01:34:38.742Z,100204.94
2022-12-23T01:37:06.686Z,100210.44
2022-12-23T01:39:34.193Z,100220.22
2022-12-23T01:42:19.286Z,100218.34
2022-12-23T01:44:50.809Z,100210.72
2022-12-23T01:47:20.844Z,100211.41
2022-12-23T01:49:49.141Z,100217.38
2022-12-23T01:52:16.715Z,100228.50
2022-12-23T01:54:45.047Z,100224.97
2022-12-23T01:57:13.017Z,100216.81
2022-12-23T01:59:58.943Z,100242.13
2022-12-23T02:02:46.566Z,100247.00
2022-12-23T02:05:14.485Z,100252.78
2022-12-23T02:07:59.676Z,100256.22
2022-12-23T02:10:30.278Z,100254.97
2022-12-23T02:13:02.422Z,100261.34
2022-12-23T02:15:53.385Z,100263.22
2022-12-23T02:18:31.006Z,100262.97
2022-12-23T02:21:12.599Z,100261.81
2022-12-23T02:23:56.071Z,100260.25
2022-12-23T02:26:36.824Z,100270.41
2022-12-23T02:29:13.983Z,100271.84
2022-12-23T02:31:48.401Z,100269.25
2022-12-23T02:34:17.595Z,100267.25
2022-12-23T02:36:50.843Z,100275.53
2022-12-23T02:39:21.581Z,100277.25
2022-12-23T02:41:52.298Z,100293.91
2022-12-23T02:44:24.705Z,100285.28
2022-12-23T02:46:56.362Z,100294.16
2022-12-23T02:49:25.772Z,100302.31
2022-12-23T02:51:55.429Z,100311.50
2022-12-23T02:54:27.593Z,100312.31
2022-12-23T02:56:55.407Z,100306.09
2022-12-23T02:59:23.848Z,100317.31
2022-12-23T03:01:52.718Z,100314.50
2022-12-23T03:04:21.655Z,100315.53
2022-12-23T03:06:50.609Z,100313.19
2022-12-23T03:09:24.265Z,100321.47
2022-12-23T03:11:55.152Z,100312.56
2022-12-23T03:14:36.093Z,100320.56
2022-12-23T03:17:11.381Z,100275.31
2022-12-23T03:19:42.753Z,100315.91
2022-12-23T03:22:12.608Z,100311.84
2022-12-23T03:24:45.771Z,100310.59
2022-12-23T03:27:17.835Z,100310.06
2022-12-23T03:29:50.501Z,100301.97
2022-12-23T03:32:19.167Z,100307.81
2022-12-23T03:34:49.478Z,100303.88
2022-12-23T03:37:18.813Z,100303.88
2022-12-23T03:39:48.227Z,100311.69
2022-12-23T03:42:18.896Z,100316.25
2022-12-23T03:45:19.335Z,100315.34
2022-12-23T03:47:38.781Z,100314.63
2022-12-23T03:50:08.990Z,100319.41
2022-12-23T03:52:39.339Z,100311.06
2022-12-23T03:55:08.822Z,100315.34
2022-12-23T03:57:41.233Z,100318.13
2022-12-23T04:00:09.267Z,100322.13
2022-12-23T04:02:41.536Z,100332.69
2022-12-23T04:05:17.356Z,100339.31
2022-12-23T04:07:48.479Z,100349.53
2022-12-23T04:10:16.411Z,100346.31
2022-12-23T04:12:45.073Z,100350.97
2022-12-23T04:15:13.457Z,100308.16
2022-12-23T04:17:41.187Z,100368.22
2022-12-23T04:20:09.140Z,100367.47
2022-12-23T04:22:39.455Z,100364.72
2022-12-23T04:25:07.395Z,100372.69
2022-12-23T04:27:34.830Z,100367.56
2022-12-23T04:30:02.326Z,100362.38
2022-12-23T04:32:29.823Z,100364.97
2022-12-23T04:34:57.321Z,100361.03
2022-12-23T04:37:24.804Z,100359.69
2022-12-23T04:39:53.648Z,100362.03
2022-12-23T04:42:21.171Z,100372.44
2022-12-23T04:44:48.645Z,100363.34
2022-12-23T04:47:16.111Z,100356.13
2022-12-23T04:49:43.615Z,100355.91
2022-12-23T04:52:11.168Z,100354.31
2022-12-23T04:54:45.524Z,100350.28
2022-12-23T04:57:15.977Z,100346.94
2022-12-23T04:59:43.476Z,100353.78
2022-12-23T05:02:11.112Z,100344.63
2022-12-23T05:04:38.787Z,100340.94
2022-12-23T05:07:06.351Z,100339.16
2022-12-23T05:09:33.816Z,100334.13
2022-12-23T05:12:01.334Z,100340.59
2022-12-23T05:14:30.172Z,100345.63
2022-12-23T05:17:02.164Z,100347.81
2022-12-23T05:19:32.788Z,100356.00
2022-12-23T05:22:00.257Z,100359.59
2022-12-23T05:24:27.720Z,100361.13
2022-12-23T05:26:59.771Z,100369.06
2022-12-23T05:29:28.028Z,100362.97
2022-12-23T05:31:56.996Z,100367.81
2022-12-23T05:34:24.484Z,100371.25
2022-12-23T05:36:51.900Z,100363.94
2022-12-23T05:39:19.295Z,100370.38
2022-12-23T05:41:46.730Z,100379.13
2022-12-23T05:44:14.181Z,100377.84
2022-12-23T05:46:41.744Z,100385.47
2022-12-23T05:49:10.563Z,100382.06
2022-12-23T05:51:38.060Z,100384.97
2022-12-23T05:54:05.605Z,100379.94
2022-12-23T05:56:33.053Z,100380.53
2022-12-23T05:59:00.596Z,100388.75
2022-12-23T06:01:28.270Z,100375.25
2022-12-23T06:03:55.835Z,100378.34
2022-12-23T06:06:24.963Z,100372.31
2022-12-23T06:08:59.124Z,100373.28
2022-12-23T06:11:27.211Z,100371.53
2022-12-23T06:13:54.739Z,100385.06
2022-12-23T06:16:22.272Z,100371.59
2022-12-23T06:18:49.787Z,100373.44
2022-12-23T06:21:17.291Z,100359.38
2022-12-23T06:23:46.140Z,100352.78
2022-12-23T06:26:13.739Z,100360.56
2022-12-23T06:28:41.270Z,100355.00
2022-12-23T06:31:08.820Z,100362.38
2022-12-23T06:33:36.325Z,100364.25
2022-12-23T06:36:03.797Z,100365.56
2022-12-23T06:38:31.281Z,100371.16
2022-12-23T06:41:00.206Z,100375.16
2022-12-23T06:43:27.669Z,100384.25
2022-12-23T06:45:55.375Z,100390.09
2022-12-23T06:48:22.926Z,100384.72
2022-12-23T06:50:50.366Z,100389.91
2022-12-23T06:53:17.844Z,100384.59
2022-12-23T06:55:45.322Z,100387.91
2022-12-23T06:58:14.186Z,100383.03
2022-12-23T07:00:41.628Z,100386.13
2022-12-23T07:03:09.228Z,100384.16
2022-12-23T07:05:37.865Z,100385.41
2022-12-23T07:08:05.701Z,100390.78
2022-12-23T07:10:33.171Z,100392.56
2022-12-23T07:13:02.112Z,100391.53
2022-12-23T07:15:30.910Z,100407.31
2022-12-23T07:17:58.407Z,100401.59
2022-12-23T07:20:25.989Z,100405.94
2022-12-23T07:22:54.933Z,100408.19
2022-12-23T07:25:22.535Z,100410.78
2022-12-23T07:27:53.530Z,100410.59
2022-12-23T07:30:21.102Z,100426.69
2022-12-23T07:32:50.302Z,100423.13
2022-12-23T07:35:18.017Z,100422.72
2022-12-23T07:37:45.687Z,100418.00
2022-12-23T07:40:13.581Z,100418.72
2022-12-23T07:42:46.566Z,100413.81
2022-12-23T07:45:14.438Z,100401.47
2022-12-23T07:47:41.858Z,100391.00
2022-12-23T07:50:11.128Z,100390.00
2022-12-23T07:52:38.669Z,100386.53
2022-12-23T07:55:06.713Z,100387.63
2022-12-23T07:57:38.197Z,100386.69
2022-12-23T08:00:07.071Z,100385.78
2022-12-23T08:02:34.582Z,100388.00
2022-12-23T08:05:02.163Z,100385.13
2022-12-23T08:07:31.035Z,100377.22
2022-12-23T08:09:58.526Z,100372.34
2022-12-23T08:12:26.177Z,100369.13
2022-12-23T08:14:53.740Z,100347.16
2022-12-23T08:17:21.987Z,100372.03
2022-12-23T08:19:49.678Z,100369.41
2022-12-23T08:22:17.136Z,100365.91
2022-12-23T08:24:46.067Z,100366.81
2022-12-23T08:27:13.572Z,100368.16
2022-12-23T08:29:41.451Z,100378.56
2022-12-23T08:32:09.072Z,100376.59
2022-12-23T08:34:36.974Z,100363.22
2022-12-23T08:37:04.484Z,100355.72
2022-12-23T08:39:31.991Z,100355.44
2022-12-23T08:42:00.864Z,100350.94
2022-12-23T08:44:28.374Z,100351.31
2022-12-23T08:46:56.032Z,100356.25
2022-12-23T08:49:24.057Z,100348.06
2022-12-23T08:51:51.668Z,100345.53
2022-12-23T08:54:20.273Z,100337.66
2022-12-23T08:56:47.778Z,100330.28
2022-12-23T08:59:19.611Z,100333.88
2022-12-23T09:01:48.092Z,100330.47
2022-12-23T09:04:15.806Z,100329.69
2022-12-23T09:06:43.573Z,100322.88
2022-12-23T09:09:11.992Z,100324.94
2022-12-23T09:11:39.474Z,100320.38
2022-12-23T09:14:08.480Z,100321.69
2022-12-23T09:16:37.378Z,100329.78
2022-12-23T09:19:04.952Z,100334.00
2022-12-23T09:21:32.645Z,100327.03
2022-12-23T09:24:00.103Z,100332.00
2022-12-23T09:26:28.834Z,100325.94
2022-12-23T09:28:56.756Z,100328.53
2022-12-23T09:31:26.885Z,100323.22
2022-12-23T09:33:59.399Z,100321.81
2022-12-23T09:36:26.900Z,100323.59
2022-12-23T09:38:55.322Z,100317.72
2022-12-23T09:41:35.879Z,100317.31
2022-12-23T09:44:13.853Z,100315.97
2022-12-23T09:46:45.703Z,100314.44
2022-12-23T09:49:16.590Z,100303.13
2022-12-23T09:51:44.623Z,100291.38
2022-12-23T09:54:17.165Z,100290.84
2022-12-23T09:56:48.457Z,100285.91
2022-12-23T09:59:21.079Z,100276.75
2022-12-23T10:01:51.766Z,100269.41
2022-12-23T10:04:37.490Z,100270.03
2022-12-23T10:07:18.471Z,100263.88
2022-12-23T10:09:48.484Z,100252.81
2022-12-23T10:12:27.242Z,100254.25
2022-12-23T10:14:56.843Z,100249.94
2022-12-23T10:17:27.718Z,100238.81
2022-12-23T10:19:58.662Z,100235.78
2022-12-23T10:22:29.130Z,100231.28
2022-12-23T10:24:58.667Z,100233.69
2022-12-23T10:27:30.189Z,100230.63
2022-12-23T10:30:09.642Z,100228.03
2022-12-23T10:32:55.324Z,100225.25
2022-12-23T10:35:27.289Z,100224.09
2022-12-23T10:37:57.313Z,100233.41
2022-12-23T10:40:27.381Z,100220.31
2022-12-23T10:43:00.767Z,100218.53
2022-12-23T10:45:40.210Z,100219.88
2022-12-23T10:48:16.155Z,100214.03
2022-12-23T10:50:50.985Z,100220.63
2022-12-23T10:53:28.426Z,100210.28
2022-12-23T10:55:57.093Z,100214.94
2022-12-23T10:58:24.593Z,100206.34
2022-12-23T11:01:00.503Z,100205.97
2022-12-23T11:03:29.478Z,100194.38
2022-12-23T11:05:57.922Z,100145.69
2022-12-23T11:08:28.057Z,100182.81
2022-12-23T11:10:56.104Z,100179.66
2022-12-23T11:13:34.439Z,100176.50
2022-12-23T11:16:12.692Z,100176.38
2022-12-23T11:18:52.652Z,100180.47
2022-12-23T11:21:20.270Z,100180.34
2022-12-23T11:23:49.056Z,100139.53
2022-12-23T11:26:19.612Z,100161.31
2022-12-23T11:28:49.924Z,100152.84
2022-12-23T11:31:26.861Z,100151.03
2022-12-23T11:33:57.985Z,100141.97
2022-12-23T11:36:27.771Z,100138.66
2022-12-23T11:39:02.380Z,100129.41
2022-12-23T11:41:31.060Z,100115.75
2022-12-23T11:44:01.742Z,100105.63
2022-12-23T11:46:30.391Z,100098.22
2022-12-23T11:49:08.553Z,100086.16
2022-12-23T11:51:36.010Z,100087.31
2022-12-23T11:54:05.721Z,100086.59
2022-12-23T11:56:37.776Z,100085.47
2022-12-23T11:59:07.706Z,100074.06
2022-12-23T12:01:36.768Z,100067.63
2022-12-23T12:04:04.970Z,100061.88
2022-12-23T12:06:33.471Z,100055.66
2022-12-23T12:09:03.113Z,100059.69
2022-12-23T12:11:36.457Z,100050.81
2022-12-23T12:14:04.752Z,100043.06
2022-12-23T12:16:44.905Z,100037.84
2022-12-23T12:19:16.686Z,100032.22
2022-12-23T12:21:45.675Z,100025.97
2022-12-23T12:24:19.047Z,100021.53
2022-12-23T12:26:52.603Z,100016.94
2022-12-23T12:29:23.589Z,99996.53
2022-12-23T12:31:52.058Z,99994.88
2022-12-23T12:34:29.140Z,99978.31
2022-12-23T12:36:59.648Z,99978.44
2022-12-23T12:39:31.157Z,99970.69
2022-12-23T12:42:05.941Z,99961.47
2022-12-23T12:44:38.824Z,99905.03
2022-12-23T12:47:28.578Z,99947.88
2022-12-23T12:50:00.203Z,99932.03
2022-12-23T12:52:28.547Z,99939.44
2022-12-23T12:54:58.021Z,99935.19
2022-12-23T12:57:27.190Z,99929.47
2022-12-23T13:00:01.618Z,99923.69
2022-12-23T13:02:44.059Z,99916.34
2022-12-23T13:05:32.619Z,99915.72
2022-12-23T13:08:09.410Z,99922.25
2022-12-23T13:10:41.044Z,99918.81
2022-12-23T13:13:27.206Z,99920.59
2022-12-23T13:15:58.750Z,99916.59
2022-12-23T13:18:35.157Z,99924.16
2022-12-23T13:21:06.711Z,99923.56
2022-12-23T13:23:44.580Z,99917.47
2022-12-23T13:26:16.333Z,99913.22
2022-12-23T13:28:48.648Z,99913.22
2022-12-23T13:31:19.978Z,99912.78
2022-12-23T13:33:50.673Z,99903.88
2022-12-23T13:36:27.375Z,99901.25
2022-12-23T13:39:04.261Z,99892.19
2022-12-23T13:41:33.299Z,99874.44
2022-12-23T13:44:02.596Z,99870.28
2022-12-23T13:46:37.633Z,99860.31
2022-12-23T13:49:07.859Z,99855.94
2022-12-23T13:51:39.563Z,99858.16
2022-12-23T13:54:16.895Z,99838.69
2022-12-23T13:56:47.115Z,99817.47
2022-12-23T13:59:16.959Z,99814.84
2022-12-23T14:01:46.129Z,99813.88
2022-12-23T14:04:30.879Z,99809.47
2022-12-23T14:06:59.251Z,99801.06
2022-12-23T14:09:30.366Z,99808.50
2022-12-23T14:12:02.690Z,99802.47
2022-12-23T14:14:33.574Z,99791.50
2022-12-23T14:17:04.007Z,99790.88
2022-12-23T14:19:40.568Z,99796.75
2022-12-23T14:22:14.687Z,99795.31
2022-12-23T14:25:02.236Z,99794.75
2022-12-23T14:27:36.648Z,99792.91
2022-12-23T14:30:12.032Z,99794.28
2022-12-23T14:32:43.819Z,99802.91
2022-12-23T14:35:22.568Z,99803.47
2022-12-23T14:38:08.808Z,99803.31
2022-12-23T14:40:53.273Z,99794.06
2022-12-23T14:43:28.709Z,99794.47
2022-12-23T14:45:58.223Z,99792.63
2022-12-23T14:49:09.638Z,99797.25
2022-12-23T14:51:41.537Z,99784.25
2022-12-23T14:54:14.157Z,99783.81
2022-12-23T14:56:49.967Z,99790.44
2022-12-23T14:59:20.194Z,99790.47
2022-12-23T15:01:49.837Z,99781.03
2022-12-23T15:04:19.542Z,99775.38
2022-12-23T15:06:48.437Z,99776.97
2022-12-23T15:09:21.721Z,99775.94
2022-12-23T15:11:49.191Z,99765.72
2022-12-23T15:14:21.088Z,99762.75
2022-12-23T15:16:49.985Z,99776.56
2022-12-23T15:19:22.638Z,99776.19
2022-12-23T15:21:59.260Z,99791.81
2022-12-23T15:24:32.967Z,99804.63
2022-12-23T15:29:49.292Z,99786.44
2022-12-23T15:32:18.355Z,99789.84
2022-12-23T15:34:48.136Z,99796.25
2022-12-23T15:37:18.188Z,99782.63
2022-12-23T15:39:46.947Z,99776.81
2022-12-23T15:42:21.397Z,99788.22
2022-12-23T15:44:48.908Z,99797.28
2022-12-23T15:47:25.125Z,99803.09
2022-12-23T15:49:52.793Z,99795.22
2022-12-23T15:52:20.823Z,99786.22
2022-12-23T15:54:54.340Z,99775.44
2022-12-23T15:57:23.540Z,99781.84
2022-12-23T15:59:51.501Z,99799.88
2022-12-23T16:05:10.178Z,99789.06
2022-12-23T16:07:39.659Z,99774.03
2022-12-23T16:10:14.071Z,99784.25
2022-12-23T16:12:42.253Z,99790.66
2022-12-23T16:15:20.121Z,99789.84
2022-12-23T16:17:47.663Z,99800.25
2022-12-23T16:20:20.216Z,99803.31
2022-12-23T16:22:50.386Z,99780.59
2022-12-23T16:25:19.952Z,99779.28
2022-12-23T16:27:48.926Z,99777.66
2022-12-23T16:30:18.481Z,99786.91
2022-12-23T16:32:50.437Z,99749.41
2022-12-23T16:35:30.128Z,99793.38
2022-12-23T16:38:02.518Z,99799.00
2022-12-23T16:40:30.050Z,99792.81
2022-12-23T16:42:58.028Z,99802.47
2022-12-23T16:45:25.585Z,99798.34
2022-12-23T16:47:55.073Z,99791.00
2022-12-23T16:50:22.586Z,99796.03
2022-12-23T16:52:51.397Z,99792.19
2022-12-23T16:55:20.035Z,99796.22
2022-12-23T16:57:47.563Z,99798.94
2022-12-23T17:00:17.499Z,99798.94
2022-12-23T17:02:45.761Z,99801.38
2022-12-23T17:05:16.129Z,99802.41
2022-12-23T17:07:45.627Z,99802.84
2022-12-23T17:10:15.851Z,99799.81
2022-12-23T17:12:43.876Z,99770.03
2022-12-23T17:15:16.662Z,99812.81
2022-12-23T17:17:44.123Z,99817.84
2022-12-23T17:20:11.920Z,99811.56
2022-12-23T17:22:39.585Z,99809.09
2022-12-23T17:25:07.162Z,99803.50
2022-12-23T17:27:36.017Z,99801.97
2022-12-23T17:30:04.860Z,99810.16
2022-12-23T17:32:32.718Z,99804.03
2022-12-23T17:35:00.271Z,99798.06
2022-12-23T17:37:30.669Z,99803.28
2022-12-23T17:39:58.395Z,99810.09
2022-12-23T17:42:26.330Z,99813.03
2022-12-23T17:44:55.212Z,99814.44
2022-12-23T17:47:23.243Z,99810.16
2022-12-23T17:49:50.950Z,99806.00
2022-12-23T17:52:19.063Z,99806.19
2022-12-23T17:54:47.022Z,99815.56
2022-12-23T17:57:17.549Z,99812.03
2022-12-23T17:59:47.779Z,99810.66
2022-12-23T18:02:21.593Z,99816.25
2022-12-23T18:04:49.193Z,99816.88
2022-12-23T18:07:16.843Z,99823.88
2022-12-23T18:09:44.316Z,99828.31
2022-12-23T18:12:24.978Z,99826.97
2022-12-23T18:14:52.823Z,99823.75
2022-12-23T18:17:21.701Z,99829.97
2022-12-23T18:19:49.206Z,99823.19
2022-12-23T18:22:18.875Z,99834.03
2022-12-23T18:24:46.858Z,99830.00
2022-12-23T18:27:15.151Z,99835.22
2022-12-23T18:29:42.798Z,99829.63
2022-12-23T18:32:18.732Z,99828.06
2022-12-23T18:34:47.586Z,99844.13
2022-12-23T18:37:15.126Z,99843.13
2022-12-23T18:39:42.711Z,99847.75
2022-12-23T18:42:12.267Z,99853.97
2022-12-23T18:44:39.965Z,99847.75
2022-12-23T18:47:07.403Z,99851.16
2022-12-23T18:49:34.929Z,99855.38
2022-12-23T18:52:04.321Z,99858.38
2022-12-23T18:54:31.797Z,99857.81
2022-12-23T18:57:00.981Z,99873.44
2022-12-23T18:59:30.200Z,99866.00
2022-12-23T19:01:58.074Z,99863.44
2022-12-23T19:04:25.886Z,99858.59
2022-12-23T19:06:53.458Z,99867.44
2022-12-23T19:09:23.150Z,99860.22
2022-12-23T19:11:51.898Z,99866.44
2022-12-23T19:14:19.399Z,99864.66
2022-12-23T19:16:51.662Z,99868.44
2022-12-23T19:19:19.978Z,99867.84
2022-12-23T19:21:47.611Z,99873.47
2022-12-23T19:24:15.160Z,99871.84
2022-12-23T19:26:44.028Z,99863.22
2022-12-23T19:29:11.510Z,99862.59
2022-12-23T19:31:39.081Z,99870.41
2022-12-23T19:34:11.198Z,99861.00
2022-12-23T19:36:42.296Z,99869.38
2022-12-23T19:39:15.816Z,99884.69
2022-12-23T19:41:44.680Z,99883.25
2022-12-23T19:44:12.180Z,99881.88
2022-12-23T19:46:39.708Z,99880.06
2022-12-23T19:49:07.269Z,99894.31
2022-12-23T19:51:34.775Z,99896.09
2022-12-23T19:54:02.268Z,99903.72
2022-12-23T19:56:30.412Z,99911.13
2022-12-23T19:58:59.632Z,99917.38
2022-12-23T20:01:27.621Z,99911.13
2022-12-23T20:03:56.307Z,99913.34
2022-12-23T20:06:25.159Z,99922.41
2022-12-23T20:08:58.073Z,99921.19
2022-12-23T20:11:30.597Z,99933.03
2022-12-23T20:14:00.114Z,99923.59
2022-12-23T20:16:28.099Z,99931.03
2022-12-23T20:18:56.400Z,99941.03
2022-12-23T20:21:24.079Z,99943.03
2022-12-23T20:23:51.611Z,99935.81
2022-12-23T20:26:20.264Z,99953.88
2022-12-23T20:28:47.882Z,99958.06
2022-12-23T20:31:18.938Z,99956.50
2022-12-23T20:33:46.998Z,99960.28
2022-12-23T20:36:16.022Z,99968.72
2022-12-23T20:38:44.782Z,99968.13
2022-12-23T20:41:12.990Z,99970.09
2022-12-23T20:43:40.464Z,99980.53
2022-12-23T20:46:09.091Z,99980.13
2022-12-23T20:48:37.950Z,99984.72
2022-12-23T20:51:05.876Z,99977.78
2022-12-23T20:53:33.615Z,99977.72
2022-12-23T20:56:01.142Z,99995.00
2022-12-23T20:58:46.285Z,99992.19
2022-12-23T21:01:14.336Z,100003.00
2022-12-23T21:03:43.351Z,99998.22
2022-12-23T21:06:10.902Z,100014.06
2022-12-23T21:08:39.245Z,100007.03
2022-12-23T21:11:08.052Z,100019.88
2022-12-23T21:13:36.982Z,100024.06
2022-12-23T21:16:05.867Z,100029.69
2022-12-23T21:18:33.563Z,100030.88
2022-12-23T21:21:03.100Z,100037.75
2022-12-23T21:23:30.882Z,100027.50
2022-12-23T21:26:15.243Z,100041.72
2022-12-23T21:28:43.729Z,100046.94
2022-12-23T21:31:11.287Z,100061.25
2022-12-23T21:33:39.981Z,100047.00
2022-12-23T21:36:10.911Z,100066.38
2022-12-23T21:38:41.404Z,100063.16
2022-12-23T21:41:10.653Z,100071.41
2022-12-23T21:43:38.387Z,100080.00
2022-12-23T21:46:07.080Z,100033.13
2022-12-23T21:48:35.501Z,100081.19
2022-12-23T21:51:03.617Z,100091.44
2022-12-23T21:53:32.747Z,100077.16
2022-12-23T21:56:03.835Z,100096.66
2022-12-23T21:58:31.400Z,100090.81
2022-12-23T22:00:59.361Z,100109.72
2022-12-23T22:03:27.598Z,100106.84
2022-12-23T22:05:55.100Z,100125.22
2022-12-23T22:08:22.492Z,100109.16
2022-12-23T22:10:51.424Z,100112.94
2022-12-23T22:13:18.946Z,100120.31
2022-12-23T22:15:46.472Z,100129.56
2022-12-23T22:18:13.979Z,100130.00
2022-12-23T22:20:46.370Z,100127.97
2022-12-23T22:23:14.211Z,100134.41
2022-12-23T22:25:41.671Z,100149.91
2022-12-23T22:28:10.478Z,100148.69
2022-12-23T22:30:37.849Z,100144.47
2022-12-23T22:33:05.278Z,100156.06
2022-12-23T22:35:32.703Z,100155.63
2022-12-23T22:38:00.184Z,100161.25
2022-12-23T22:40:27.627Z,100166.66
2022-12-23T22:42:55.123Z,100169.66
2022-12-23T22:45:24.085Z,100173.25
2022-12-23T22:47:51.762Z,100134.97
2022-12-23T22:50:19.370Z,100170.66
2022-12-23T22:52:46.835Z,100184.56
2022-12-23T22:55:14.277Z,100189.34
2022-12-23T22:57:41.780Z,100193.31
2022-12-23T23:00:12.531Z,100199.94
2022-12-23T23:02:41.772Z,100201.75
2022-12-23T23:05:13.016Z,100205.34
2022-12-23T23:07:40.800Z,100197.13
2022-12-23T23:10:08.972Z,100205.56
2022-12-23T23:12:36.465Z,100204.94
2022-12-23T23:15:03.885Z,100216.16
2022-12-23T23:17:31.327Z,100209.16
2022-12-23T23:20:00.200Z,100223.22
2022-12-23T23:22:27.653Z,100218.59
2022-12-23T23:24:55.217Z,100231.19
2022-12-23T23:27:22.720Z,100228.94
2022-12-23T23:29:50.256Z,100235.41
2022-12-23T23:32:17.763Z,100240.66
2022-12-23T23:34:45.252Z,100249.88
2022-12-23T23:37:15.672Z,100242.03
2022-12-23T23:39:43.142Z,100245.81
2022-12-23T23:42:10.718Z,100247.63
2022-12-23T23:44:38.147Z,100256.06
2022-12-23T23:47:05.616Z,100266.34
2022-12-23T23:49:33.139Z,100266.34
2022-12-23T23:52:00.578Z,100270.81
2022-12-23T23:54:29.468Z,100287.13
2022-12-23T23:56:56.951Z,100280.94
2022-12-23T23:59:24.391Z,100286.53
